createdAt,value
2023-01-12T00:00:28.980Z,5.40
2023-01-12T00:02:57.816Z,5.20
2023-01-12T00:05:26.173Z,4.67
2023-01-12T00:07:54.690Z,5.07
2023-01-12T00:10:24.473Z,5.30
2023-01-12T00:12:52.833Z,5.50
2023-01-12T00:15:41.665Z,5.23
2023-01-12T00:18:10.186Z,5.23
2023-01-12T00:20:42.377Z,4.73
2023-01-12T00:23:12.421Z,4.80
2023-01-12T00:25:44.907Z,5.27
2023-01-12T00:28:13.736Z,5.10
2023-01-12T00:30:44.120Z,4.90
2023-01-12T00:35:38.271Z,5.67
2023-01-12T00:38:06.983Z,4.60
2023-01-12T00:40:37.688Z,5.10
2023-01-12T00:43:27.744Z,5.03
2023-01-12T00:45:56.280Z,5.33
2023-01-12T00:48:25.624Z,5.10
2023-01-12T00:50:55.599Z,5.10
2023-01-12T00:53:24.542Z,5.60
2023-01-12T00:55:52.853Z,5.00
2023-01-12T00:58:22.555Z,4.83
2023-01-12T01:00:51.248Z,4.70
2023-01-12T01:03:19.595Z,5.87
2023-01-12T01:05:48.096Z,4.90
2023-01-12T01:08:16.505Z,5.03
2023-01-12T01:10:46.795Z,4.50
2023-01-12T01:15:44.042Z,5.27
2023-01-12T01:18:12.468Z,4.87
2023-01-12T01:20:47.854Z,4.13
2023-01-12T01:23:16.592Z,4.30
2023-01-12T01:25:45.155Z,5.40
2023-01-12T01:28:13.510Z,4.97
2023-01-12T01:30:43.438Z,4.97
2023-01-12T01:35:54.045Z,4.77
2023-01-12T01:38:22.497Z,5.20
2023-01-12T01:40:51.264Z,4.80
2023-01-12T01:43:22.681Z,4.00
2023-01-12T01:45:59.227Z,4.30
2023-01-12T01:48:30.102Z,5.20
2023-01-12T01:51:03.697Z,4.87
2023-01-12T01:53:36.313Z,4.17
2023-01-12T01:56:09.176Z,4.83
2023-01-12T01:58:40.754Z,4.77
2023-01-12T02:01:12.437Z,4.97
2023-01-12T02:03:44.059Z,5.13
2023-01-12T02:06:14.656Z,4.40
2023-01-12T02:08:51.596Z,4.47
2023-01-12T02:11:38.102Z,4.23
2023-01-12T02:14:23.855Z,4.13
2023-01-12T02:17:05.529Z,4.10
2023-01-12T02:20:00.168Z,4.13
2023-01-12T02:23:00.242Z,3.97
2023-01-12T02:25:56.890Z,4.50
2023-01-12T02:29:02.162Z,3.80
2023-01-12T02:31:48.639Z,4.03
2023-01-12T02:34:28.324Z,3.80
2023-01-12T02:37:07.031Z,3.90
2023-01-12T02:39:43.907Z,3.83
2023-01-12T02:42:36.559Z,3.57
2023-01-12T02:45:13.786Z,4.27
2023-01-12T02:50:16.129Z,3.53
2023-01-12T02:52:49.625Z,4.03
2023-01-12T02:55:19.806Z,4.00
2023-01-12T02:57:48.122Z,4.00
2023-01-12T03:00:18.769Z,3.37
2023-01-12T03:02:48.657Z,3.80
2023-01-12T03:05:17.279Z,3.50
2023-01-12T03:07:50.024Z,4.17
2023-01-12T03:10:42.560Z,4.20
2023-01-12T03:13:14.659Z,3.60
2023-01-12T03:15:46.635Z,3.50
2023-01-12T03:18:19.111Z,3.20
2023-01-12T03:20:54.175Z,3.60
2023-01-12T03:23:27.366Z,3.57
2023-01-12T03:25:58.634Z,3.47
2023-01-12T03:28:33.736Z,3.00
2023-01-12T03:31:09.009Z,3.30
2023-01-12T03:33:43.078Z,3.73
2023-01-12T03:36:20.222Z,2.97
2023-01-12T03:39:02.240Z,3.20
2023-01-12T03:44:18.733Z,3.27
2023-01-12T03:46:56.469Z,3.80
2023-01-12T03:49:33.079Z,3.43
2023-01-12T03:52:03.346Z,3.40
2023-01-12T03:54:33.948Z,3.67
2023-01-12T03:57:03.256Z,3.67
2023-01-12T03:59:32.043Z,3.47
2023-01-12T04:02:00.473Z,3.87
2023-01-12T04:04:30.386Z,3.63
2023-01-12T04:07:01.022Z,4.30
2023-01-12T04:09:30.330Z,4.00
2023-01-12T04:12:11.203Z,3.73
2023-01-12T04:14:40.662Z,3.63
2023-01-12T04:17:10.661Z,4.23
2023-01-12T04:19:40.463Z,3.93
2023-01-12T04:22:26.982Z,4.17
2023-01-12T04:24:58.154Z,4.40
2023-01-12T04:27:27.019Z,4.37
2023-01-12T04:29:55.561Z,4.10
2023-01-12T04:32:23.970Z,4.30
2023-01-12T04:34:53.731Z,3.50
2023-01-12T04:37:22.590Z,3.63
2023-01-12T04:39:54.944Z,4.00
2023-01-12T04:42:40.538Z,3.60
2023-01-12T04:45:09.999Z,3.83
2023-01-12T04:47:38.388Z,3.50
2023-01-12T04:50:09.956Z,3.90
2023-01-12T04:52:39.085Z,3.50
2023-01-12T04:55:08.182Z,3.63
2023-01-12T04:57:36.654Z,3.00
2023-01-12T05:00:06.638Z,3.30
2023-01-12T05:02:35.035Z,3.03
2023-01-12T05:05:05.331Z,3.40
2023-01-12T05:07:35.067Z,3.37
2023-01-12T05:10:20.711Z,3.30
2023-01-12T05:12:49.705Z,3.57
2023-01-12T05:15:18.280Z,2.93
2023-01-12T05:17:46.658Z,3.30
2023-01-12T05:20:15.283Z,3.50
2023-01-12T05:22:45.129Z,3.47
2023-01-12T05:25:13.546Z,3.43
2023-01-12T05:27:44.896Z,3.67
2023-01-12T05:30:14.025Z,3.40
2023-01-12T05:32:42.735Z,3.00
2023-01-12T05:35:11.472Z,3.73
2023-01-12T05:37:39.995Z,3.67
2023-01-12T05:40:11.477Z,3.53
2023-01-12T05:43:12.458Z,3.10
2023-01-12T05:45:43.757Z,3.37
2023-01-12T05:48:25.268Z,3.80
2023-01-12T05:50:57.189Z,3.93
2023-01-12T05:53:25.601Z,3.70
2023-01-12T05:55:56.006Z,3.20
2023-01-12T05:58:24.817Z,3.80
2023-01-12T06:00:53.241Z,3.40
2023-01-12T06:03:22.052Z,3.80
2023-01-12T06:06:01.448Z,4.03
2023-01-12T06:08:31.172Z,3.90
2023-01-12T06:11:03.673Z,3.67
2023-01-12T06:13:53.491Z,3.60
2023-01-12T06:16:22.028Z,3.57
2023-01-12T06:18:52.950Z,3.93
2023-01-12T06:21:21.563Z,3.50
2023-01-12T06:23:50.316Z,3.57
2023-01-12T06:26:26.247Z,4.37
2023-01-12T06:28:55.493Z,3.30
2023-01-12T06:31:25.933Z,3.57
2023-01-12T06:33:54.509Z,3.90
2023-01-12T06:36:24.902Z,3.50
2023-01-12T06:38:55.428Z,3.30
2023-01-12T06:41:42.937Z,4.00
2023-01-12T06:44:11.602Z,3.90
2023-01-12T22:30:32.347Z,8.80
2023-01-12T22:33:00.824Z,6.80
2023-01-12T22:35:29.292Z,3.30
2023-01-12T22:37:58.021Z,2.47
2023-01-12T22:40:26.282Z,2.90
2023-01-12T22:43:11.928Z,2.83
2023-01-12T22:45:42.821Z,2.57
2023-01-12T22:48:11.314Z,2.23
2023-01-12T22:50:39.706Z,2.47
2023-01-12T22:53:08.325Z,2.60
2023-01-12T22:55:40.470Z,2.10
2023-01-12T22:58:09.359Z,2.10
2023-01-12T23:00:39.861Z,1.90
2023-01-12T23:03:15.480Z,2.30
2023-01-12T23:05:48.734Z,2.10
2023-01-12T23:08:17.742Z,2.10
2023-01-12T23:10:46.127Z,2.30
2023-01-12T23:13:19.148Z,2.10
2023-01-12T23:15:53.399Z,2.30
2023-01-12T23:18:27.968Z,2.33
2023-01-12T23:21:02.543Z,2.27
2023-01-12T23:23:31.724Z,2.40
2023-01-12T23:26:04.105Z,2.50
2023-01-12T23:28:43.467Z,2.30
2023-01-12T23:31:14.402Z,2.20
2023-01-12T23:33:44.992Z,2.63
2023-01-12T23:36:17.829Z,2.80
2023-01-12T23:38:46.823Z,2.57
2023-01-12T23:41:19.881Z,2.90
2023-01-12T23:43:49.458Z,2.60
2023-01-12T23:46:21.881Z,3.13
2023-01-12T23:48:52.717Z,4.43
2023-01-12T23:51:21.486Z,2.87
2023-01-12T23:53:52.684Z,3.17
2023-01-12T23:56:22.131Z,2.87
2023-01-12T23:58:52.690Z,3.07
